Time;durP1;ratioP1;P1;durP2;ratioP2;P2;SDS_P1;SDS_P2;PMS_P1;PMS_P2;Temp;Humidity;BMP_temperature;BMP_pressure;BME280_temperature;BME280_humidity;BME280_pressure;Samples;Min_cycle;Max_cycle;Signal;HPM_P1;HPM_P2
2021/04/01 00:02:26;;;;;;;42.47;27.02;;;;;;;;;;4987143;28;20026;-67
2021/04/01 00:04:52;;;;;;;37.97;27.77;;;;;;;;;;4981346;28;20026;-67
2021/04/01 00:07:19;;;;;;;43.13;26.92;;;;;;;;;;4990521;28;20022;-67
2021/04/01 00:09:45;;;;;;;48.35;26.60;;;;;;;;;;4994528;28;20030;-67
2021/04/01 00:12:11;;;;;;;41.40;26.33;;;;;;;;;;4994661;28;20027;-67
2021/04/01 00:14:37;;;;;;;39.83;26.63;;;;;;;;;;4994540;28;20038;-67
2021/04/01 00:17:03;;;;;;;38.50;27.33;;;;;;;;;;4994194;28;20109;-68
2021/04/01 00:19:30;;;;;;;43.75;28.17;;;;;;;;;;4994445;28;20044;-67
2021/04/01 00:21:56;;;;;;;42.35;27.70;;;;;;;;;;4994315;28;20027;-68
2021/04/01 00:24:22;;;;;;;47.42;26.58;;;;;;;;;;4991238;28;20035;-69
2021/04/01 00:26:48;;;;;;;38.47;26.85;;;;;;;;;;4993993;28;20366;-67
2021/04/01 00:29:14;;;;;;;39.67;26.27;;;;;;;;;;4994646;28;20409;-69
2021/04/01 00:31:40;;;;;;;36.85;25.27;;;;;;;;;;4993969;28;20134;-67
2021/04/01 00:34:06;;;;;;;40.60;26.15;;;;;;;;;;4994020;28;20069;-67
2021/04/01 00:36:32;;;;;;;39.50;27.02;;;;;;;;;;4994426;28;20046;-66
2021/04/01 00:38:58;;;;;;;42.08;27.10;;;;;;;;;;4994063;28;20489;-67
2021/04/01 00:41:24;;;;;;;52.63;30.08;;;;;;;;;;4994088;28;20022;-66
2021/04/01 00:43:51;;;;;;;43.63;28.33;;;;;;;;;;4993695;28;20381;-66
2021/04/01 00:46:17;;;;;;;44.30;30.48;;;;;;;;;;4993926;28;20058;-67
2021/04/01 00:48:43;;;;;;;47.85;27.92;;;;;;;;;;4997125;28;20047;-66
2021/04/01 00:51:09;;;;;;;50.13;30.45;;;;;;;;;;4998257;28;20022;-67
2021/04/01 00:53:35;;;;;;;45.10;30.10;;;;;;;;;;4984492;28;20198;-69
2021/04/01 00:56:01;;;;;;;45.72;29.30;;;;;;;;;;4998162;28;20485;-68
2021/04/01 00:58:29;;;;;;;40.17;27.92;;;;;;;;;;4997654;28;20528;-67
2021/04/01 01:03:51;;;;;;;46.15;29.52;;;;;;;;;;4972296;28;20429;-66
2021/04/01 01:06:17;;;;;;;37.55;25.63;;;;;;;;;;4972133;28;20035;-66
2021/04/01 01:08:43;;;;;;;44.03;29.13;;;;;;;;;;4954842;28;20034;-66
2021/04/01 01:11:09;;;;;;;42.33;27.25;;;;;;;;;;4955790;28;20027;-65
2021/04/01 01:13:35;;;;;;;43.65;26.95;;;;;;;;;;4971531;28;20051;-66
2021/04/01 01:16:02;;;;;;;40.17;25.92;;;;;;;;;;4971838;28;20115;-65
2021/04/01 01:18:28;;;;;;;40.40;25.83;;;;;;;;;;4971390;28;20041;-66
2021/04/01 01:20:57;;;;;;;42.33;26.10;;;;;;;;;;4971900;28;20433;-65
2021/04/01 01:23:25;;;;;;;41.55;26.45;;;;;;;;;;4971563;28;20110;-66
2021/04/01 01:25:51;;;;;;;45.55;28.58;;;;;;;;;;4971914;28;20034;-66
2021/04/01 01:28:17;;;;;;;41.15;26.08;;;;;;;;;;4955357;28;20041;-66
2021/04/01 01:30:43;;;;;;;41.85;25.65;;;;;;;;;;4971001;28;20154;-66
2021/04/01 01:33:16;;;;;;;40.35;25.52;;;;;;;;;;4971567;28;20042;-66
2021/04/01 01:35:42;;;;;;;38.67;25.00;;;;;;;;;;4971380;28;20074;-66
2021/04/01 01:38:09;;;;;;;41.60;26.65;;;;;;;;;;4971521;28;20528;-66
2021/04/01 01:40:36;;;;;;;43.97;26.75;;;;;;;;;;4972531;28;20046;-66
2021/04/01 01:43:03;;;;;;;45.10;25.77;;;;;;;;;;4991801;28;20331;-65
2021/04/01 01:45:30;;;;;;;39.80;25.70;;;;;;;;;;4991842;28;20496;-66
2021/04/01 01:47:56;;;;;;;36.80;24.15;;;;;;;;;;4991854;28;20047;-67
2021/04/01 01:50:24;;;;;;;41.03;26.15;;;;;;;;;;4992114;28;20022;-67
2021/04/01 01:52:50;;;;;;;40.60;24.80;;;;;;;;;;4992625;28;20077;-65
2021/04/01 01:55:16;;;;;;;36.60;23.20;;;;;;;;;;4992841;28;20026;-66
2021/04/01 01:57:42;;;;;;;35.92;24.10;;;;;;;;;;4992710;28;20046;-67
2021/04/01 02:00:11;;;;;;;42.67;26.35;;;;;;;;;;4992505;28;20053;-67
2021/04/01 02:02:38;;;;;;;39.28;25.30;;;;;;;;;;4992462;28;20050;-67
2021/04/01 02:05:05;;;;;;;38.15;25.80;;;;;;;;;;4992640;28;20057;-68
2021/04/01 02:07:31;;;;;;;34.85;24.85;;;;;;;;;;4992678;28;20025;-67
2021/04/01 02:09:57;;;;;;;41.33;24.85;;;;;;;;;;4992312;28;20061;-68
2021/04/01 02:12:23;;;;;;;38.33;23.70;;;;;;;;;;4991928;28;20110;-67
2021/04/01 02:14:49;;;;;;;31.63;23.90;;;;;;;;;;4991512;28;20061;-67
2021/04/01 02:17:20;;;;;;;34.65;23.02;;;;;;;;;;4991599;28;20064;-67
2021/04/01 02:19:46;;;;;;;37.65;24.88;;;;;;;;;;4991692;28;20500;-68
2021/04/01 02:22:12;;;;;;;32.85;22.65;;;;;;;;;;4994082;28;20081;-67
2021/04/01 02:24:38;;;;;;;37.22;23.65;;;;;;;;;;4988724;28;20474;-67
2021/04/01 02:27:05;;;;;;;32.30;21.95;;;;;;;;;;4996949;28;20029;-67
2021/04/01 02:29:31;;;;;;;31.30;23.70;;;;;;;;;;4995151;28;20516;-68
2021/04/01 02:31:57;;;;;;;33.00;22.00;;;;;;;;;;4996341;28;20030;-67
2021/04/01 02:34:23;;;;;;;34.15;22.60;;;;;;;;;;4996136;28;20102;-69
2021/04/01 02:36:49;;;;;;;34.25;22.10;;;;;;;;;;4996375;28;20022;-67
2021/04/01 02:39:15;;;;;;;33.58;22.92;;;;;;;;;;4996026;28;20029;-68
2021/04/01 02:41:41;;;;;;;33.80;22.55;;;;;;;;;;4996281;28;20050;-66
2021/04/01 02:44:07;;;;;;;31.25;21.45;;;;;;;;;;4996461;28;20043;-68
2021/04/01 02:46:33;;;;;;;32.13;22.02;;;;;;;;;;4995788;28;20022;-68
2021/04/01 02:48:59;;;;;;;31.52;22.42;;;;;;;;;;4996066;28;20050;-67
2021/04/01 02:51:26;;;;;;;33.72;22.38;;;;;;;;;;4996063;28;20034;-67
2021/04/01 02:53:53;;;;;;;30.48;21.40;;;;;;;;;;4995844;28;20038;-69
2021/04/01 02:56:19;;;;;;;31.38;21.90;;;;;;;;;;4995885;28;20034;-69
2021/04/01 02:58:45;;;;;;;31.77;21.92;;;;;;;;;;4996539;28;20030;-70
2021/04/01 03:01:11;;;;;;;34.72;22.35;;;;;;;;;;4995529;28;20085;-68
2021/04/01 03:03:45;;;;;;;33.45;21.38;;;;;;;;;;4995786;28;20101;-68
2021/04/01 03:06:12;;;;;;;32.30;23.88;;;;;;;;;;4996005;28;20106;-68
2021/04/01 03:08:38;;;;;;;33.33;22.98;;;;;;;;;;4993445;28;20035;-68
2021/04/01 03:11:04;;;;;;;34.38;22.50;;;;;;;;;;4995939;28;20021;-68
2021/04/01 03:13:30;;;;;;;35.30;22.60;;;;;;;;;;4991609;28;20046;-67
2021/04/01 03:15:56;;;;;;;35.13;23.98;;;;;;;;;;4981427;28;20537;-68
2021/04/01 03:18:22;;;;;;;34.88;22.65;;;;;;;;;;4989359;28;20043;-65
2021/04/01 03:20:49;;;;;;;39.45;23.50;;;;;;;;;;4976735;28;20031;-67
2021/04/01 03:23:16;;;;;;;30.42;23.13;;;;;;;;;;4975995;28;20022;-69
2021/04/01 03:25:42;;;;;;;32.13;22.13;;;;;;;;;;4991536;28;20512;-68
2021/04/01 03:28:10;;;;;;;34.25;21.85;;;;;;;;;;4994290;28;20030;-67
2021/04/01 03:30:39;;;;;;;34.00;22.25;;;;;;;;;;4979723;28;20023;-69
2021/04/01 03:33:05;;;;;;;30.13;21.77;;;;;;;;;;4981912;28;20105;-68
2021/04/01 03:35:31;;;;;;;33.38;23.10;;;;;;;;;;4981022;28;20109;-69
2021/04/01 03:38:03;;;;;;;31.27;23.00;;;;;;;;;;4976165;28;20019;-68
2021/04/01 03:40:29;;;;;;;33.95;22.15;;;;;;;;;;4975612;28;20073;-68
2021/04/01 03:42:56;;;;;;;32.05;21.92;;;;;;;;;;4992455;28;20033;-67
2021/04/01 03:45:22;;;;;;;34.30;21.50;;;;;;;;;;4994332;28;20045;-68
2021/04/01 03:47:48;;;;;;;32.83;22.48;;;;;;;;;;4994900;28;20054;-68
2021/04/01 03:50:14;;;;;;;37.97;22.50;;;;;;;;;;4995033;28;20030;-70
2021/04/01 03:52:41;;;;;;;35.83;22.30;;;;;;;;;;4995023;28;20509;-68
2021/04/01 04:00:40;;;;;;;32.67;21.08;;;;;;;;;;4994687;28;20042;-69
2021/04/01 04:08:44;;;;;;;33.05;21.58;;;;;;;;;;4994454;28;20065;-68
2021/04/01 04:16:23;;;;;;;30.88;21.98;;;;;;;;;;4994658;28;20089;-69
2021/04/01 04:18:49;;;;;;;34.55;21.58;;;;;;;;;;4993952;28;20030;-68
2021/04/01 04:21:17;;;;;;;33.40;22.17;;;;;;;;;;4994464;28;20022;-67
2021/04/01 04:23:46;;;;;;;33.58;22.65;;;;;;;;;;4994306;28;20022;-68
2021/04/01 04:26:12;;;;;;;36.75;23.05;;;;;;;;;;4994427;28;20076;-67
2021/04/01 04:28:38;;;;;;;37.53;24.05;;;;;;;;;;4994175;28;20101;-68
2021/04/01 04:31:05;;;;;;;38.63;26.67;;;;;;;;;;4994154;28;20019;-69
2021/04/01 04:33:31;;;;;;;44.50;25.58;;;;;;;;;;4992256;28;20042;-67
2021/04/01 04:35:58;;;;;;;37.03;24.48;;;;;;;;;;4994462;28;20026;-69
2021/04/01 04:38:25;;;;;;;37.08;23.88;;;;;;;;;;4998216;28;20579;-67
2021/04/01 04:40:56;;;;;;;39.60;25.63;;;;;;;;;;4999360;28;20093;-69
2021/04/01 04:43:27;;;;;;;36.28;23.70;;;;;;;;;;4997536;28;20025;-68
2021/04/01 04:45:53;;;;;;;39.60;23.08;;;;;;;;;;4998857;28;20018;-68
2021/04/01 04:48:20;;;;;;;38.80;24.52;;;;;;;;;;4996982;28;20495;-67
2021/04/01 04:50:46;;;;;;;37.50;24.13;;;;;;;;;;4997632;28;20030;-68
2021/04/01 04:53:15;;;;;;;36.33;22.45;;;;;;;;;;4994955;28;20057;-67
2021/04/01 04:55:46;;;;;;;34.03;24.90;;;;;;;;;;4993972;28;20038;-68
2021/04/01 04:58:17;;;;;;;32.50;24.38;;;;;;;;;;4993951;28;20537;-68
2021/04/01 05:05:57;;;;;;;35.92;24.48;;;;;;;;;;4994029;28;20037;-67
2021/04/01 05:08:23;;;;;;;37.03;25.13;;;;;;;;;;4993495;28;20024;-68
2021/04/01 05:10:50;;;;;;;35.17;24.67;;;;;;;;;;4993739;28;20029;-69
2021/04/01 05:13:16;;;;;;;35.28;24.70;;;;;;;;;;4993592;28;20030;-70
2021/04/01 05:15:47;;;;;;;39.75;23.65;;;;;;;;;;4993331;28;20026;-70
2021/04/01 05:20:40;;;;;;;37.60;25.85;;;;;;;;;;4993467;28;20034;-69
2021/04/01 05:23:13;;;;;;;39.00;26.00;;;;;;;;;;4993123;28;20465;-68
2021/04/01 05:25:39;;;;;;;39.40;25.30;;;;;;;;;;4993081;28;20041;-68
2021/04/01 05:28:20;;;;;;;38.10;27.42;;;;;;;;;;4993381;28;20070;-67
2021/04/01 05:30:46;;;;;;;38.17;26.67;;;;;;;;;;4992325;28;20389;-69
2021/04/01 05:33:14;;;;;;;40.28;26.85;;;;;;;;;;4992184;28;20034;-68
2021/04/01 05:35:40;;;;;;;41.05;26.30;;;;;;;;;;4992951;28;20073;-67
2021/04/01 05:38:07;;;;;;;43.63;26.42;;;;;;;;;;4993091;28;20025;-67
2021/04/01 05:40:33;;;;;;;45.15;28.13;;;;;;;;;;4993717;28;20030;-70
2021/04/01 05:43:02;;;;;;;42.88;28.45;;;;;;;;;;4992737;28;20014;-66
2021/04/01 05:45:52;;;;;;;39.63;27.67;;;;;;;;;;4993269;28;20098;-68
2021/04/01 05:48:23;;;;;;;42.38;28.50;;;;;;;;;;4986232;28;20084;-66
2021/04/01 06:06:55;;;;;;;42.97;27.52;;;;;;;;;;4964010;28;20054;-72
2021/04/01 06:09:28;;;;;;;43.03;27.38;;;;;;;;;;4971196;28;20466;-70
2021/04/01 06:11:55;;;;;;;39.78;27.83;;;;;;;;;;4970774;28;20035;-71
2021/04/01 06:14:33;;;;;;;45.28;29.02;;;;;;;;;;4964225;28;20860;-68
2021/04/01 06:17:06;;;;;;;41.80;27.95;;;;;;;;;;4967551;28;20101;-70
2021/04/01 06:19:34;;;;;;;42.33;27.75;;;;;;;;;;4971055;28;20031;-67
2021/04/01 06:22:05;;;;;;;44.05;28.35;;;;;;;;;;4971331;28;20039;-69
2021/04/01 06:24:32;;;;;;;40.92;27.27;;;;;;;;;;4970900;28;20031;-68
2021/04/01 06:27:11;;;;;;;49.55;29.65;;;;;;;;;;4974480;28;20554;-70
2021/04/01 06:29:38;;;;;;;44.10;28.85;;;;;;;;;;4992493;28;20050;-71
2021/04/01 06:32:05;;;;;;;43.83;29.35;;;;;;;;;;4992694;28;20022;-68
2021/04/01 06:34:41;;;;;;;45.00;29.30;;;;;;;;;;4978013;28;20042;-69
2021/04/01 06:37:23;;;;;;;48.92;30.63;;;;;;;;;;4994494;28;20015;-71
2021/04/01 06:39:58;;;;;;;50.60;30.27;;;;;;;;;;4996714;28;20026;-70
2021/04/01 06:42:29;;;;;;;42.95;28.60;;;;;;;;;;4997771;28;20033;-70
2021/04/01 06:44:57;;;;;;;35.58;27.33;;;;;;;;;;4996218;28;20022;-70
2021/04/01 06:47:25;;;;;;;44.90;30.40;;;;;;;;;;4996521;28;20154;-71
2021/04/01 06:50:04;;;;;;;44.28;27.23;;;;;;;;;;4990647;28;20031;-72
2021/04/01 06:52:34;;;;;;;40.35;28.65;;;;;;;;;;4983849;28;20035;-71
2021/04/01 06:55:12;;;;;;;41.15;26.48;;;;;;;;;;4978852;28;20043;-72
2021/04/01 07:06:19;;;;;;;52.58;27.63;;;;;;;;;;4882042;29;20085;-72
2021/04/01 07:09:00;;;;;;;39.72;26.98;;;;;;;;;;4880734;29;20127;-72
2021/04/01 07:11:37;;;;;;;44.38;26.48;;;;;;;;;;4872353;29;20027;-72
2021/04/01 07:14:22;;;;;;;35.47;24.83;;;;;;;;;;4879205;29;20105;-71
2021/04/01 07:17:11;;;;;;;42.70;27.05;;;;;;;;;;4879117;29;20128;-69
2021/04/01 07:22:52;;;;;;;33.05;24.25;;;;;;;;;;4879610;29;20044;-70
2021/04/01 07:47:25;;;;;;;37.70;25.40;;;;;;;;;;4972928;28;20129;-69
2021/04/01 07:49:53;;;;;;;37.58;27.35;;;;;;;;;;4973601;28;20042;-70
2021/04/01 07:52:22;;;;;;;43.53;25.00;;;;;;;;;;4973916;28;20019;-70
2021/04/01 07:54:57;;;;;;;35.83;25.05;;;;;;;;;;4973671;28;20494;-71
2021/04/01 08:00:16;;;;;;;35.75;24.67;;;;;;;;;;4974111;28;20058;-68
2021/04/01 08:05:31;;;;;;;35.88;23.80;;;;;;;;;;4973479;28;19971;-70
2021/04/01 08:08:00;;;;;;;31.35;24.02;;;;;;;;;;4973205;28;20444;-69
2021/04/01 08:10:30;;;;;;;27.17;20.60;;;;;;;;;;4972311;28;20026;-70
2021/04/01 08:13:02;;;;;;;33.55;20.92;;;;;;;;;;4973260;28;20035;-68
2021/04/01 08:15:31;;;;;;;26.05;18.05;;;;;;;;;;4973689;28;20047;-69
2021/04/01 08:18:08;;;;;;;;;;;;;;;;;;4957131;28;20031;-71
2021/04/01 08:20:36;;;;;;;19.15;14.18;;;;;;;;;;4972855;28;19914;-68
2021/04/01 08:23:12;;;;;;;27.13;19.27;;;;;;;;;;4986208;28;20023;-70
2021/04/01 08:25:49;;;;;;;22.48;17.10;;;;;;;;;;4994248;28;20113;-68
2021/04/01 08:28:29;;;;;;;24.25;16.90;;;;;;;;;;4994513;28;20026;-70
2021/04/01 08:36:36;;;;;;;18.15;11.80;;;;;;;;;;4994052;28;20157;-71
2021/04/01 08:39:02;;;;;;;12.80;7.43;;;;;;;;;;4991869;28;20022;-69
2021/04/01 08:41:28;;;;;;;14.15;10.02;;;;;;;;;;4983296;28;20022;-68
2021/04/01 08:44:05;;;;;;;17.65;12.43;;;;;;;;;;4993871;28;20365;-70
2021/04/01 08:46:50;;;;;;;15.85;10.98;;;;;;;;;;4994124;28;20022;-71
2021/04/01 08:49:38;;;;;;;15.65;11.32;;;;;;;;;;4987787;28;20038;-72
2021/04/01 08:52:22;;;;;;;14.63;10.32;;;;;;;;;;4994223;28;20029;-70
2021/04/01 08:55:00;;;;;;;17.02;10.68;;;;;;;;;;4981086;28;20098;-71
2021/04/01 08:57:39;;;;;;;18.42;12.98;;;;;;;;;;4994604;28;20042;-71
2021/04/01 09:00:06;;;;;;;16.95;11.23;;;;;;;;;;4991034;28;20022;-71
2021/04/01 09:02:33;;;;;;;20.20;11.55;;;;;;;;;;4993567;28;20106;-71
2021/04/01 09:04:59;;;;;;;20.80;13.00;;;;;;;;;;4992911;28;20022;-70
2021/04/01 09:07:28;;;;;;;14.95;11.35;;;;;;;;;;4992391;28;20030;-71
2021/04/01 09:10:01;;;;;;;21.50;13.90;;;;;;;;;;4993036;28;20080;-72
2021/04/01 09:12:33;;;;;;;16.17;12.90;;;;;;;;;;4991961;28;20034;-71
2021/04/01 09:15:02;;;;;;;23.73;14.15;;;;;;;;;;4993828;28;20175;-71
2021/04/01 09:17:38;;;;;;;19.13;11.20;;;;;;;;;;4992804;28;20046;-72
2021/04/01 09:20:31;;;;;;;16.65;11.50;;;;;;;;;;4993348;28;20026;-70
2021/04/01 09:23:10;;;;;;;13.93;10.93;;;;;;;;;;4989105;28;20062;-71
2021/04/01 09:25:40;;;;;;;14.45;10.57;;;;;;;;;;4991232;28;20026;-70
2021/04/01 09:28:07;;;;;;;17.98;12.77;;;;;;;;;;4991531;28;20465;-70
2021/04/01 09:30:33;;;;;;;15.07;11.63;;;;;;;;;;4985553;28;20054;-70
2021/04/01 09:33:05;;;;;;;18.60;11.63;;;;;;;;;;4993213;28;20054;-68
2021/04/01 09:35:32;;;;;;;17.90;11.93;;;;;;;;;;4988343;28;20042;-70
2021/04/01 09:38:04;;;;;;;22.15;12.95;;;;;;;;;;4973519;28;20023;-69
2021/04/01 09:40:32;;;;;;;18.48;12.30;;;;;;;;;;4973604;28;20025;-70
2021/04/01 09:43:10;;;;;;;18.48;10.88;;;;;;;;;;4973814;28;20393;-70
2021/04/01 09:45:36;;;;;;;16.85;13.30;;;;;;;;;;4980900;28;20029;-70
2021/04/01 09:48:04;;;;;;;18.65;12.48;;;;;;;;;;4979434;28;20046;-71
2021/04/01 09:50:31;;;;;;;16.90;10.82;;;;;;;;;;4979131;28;20122;-71
2021/04/01 09:53:03;;;;;;;15.98;11.40;;;;;;;;;;4980942;28;20377;-71
2021/04/01 09:55:43;;;;;;;17.20;12.13;;;;;;;;;;4978297;28;20038;-72
2021/04/01 09:58:22;;;;;;;13.10;10.68;;;;;;;;;;4980486;28;20019;-71
2021/04/01 10:03:18;;;;;;;18.88;12.98;;;;;;;;;;4979986;28;20023;-71
2021/04/01 10:05:46;;;;;;;18.45;12.68;;;;;;;;;;4978646;28;20086;-70
2021/04/01 10:08:13;;;;;;;16.83;11.85;;;;;;;;;;4983506;28;20014;-72
2021/04/01 10:10:43;;;;;;;14.45;11.00;;;;;;;;;;4992325;28;20026;-71
2021/04/01 10:13:16;;;;;;;14.27;10.55;;;;;;;;;;4991521;28;20118;-71
2021/04/01 10:15:42;;;;;;;13.05;9.43;;;;;;;;;;4991633;28;20040;-71
2021/04/01 10:18:09;;;;;;;11.68;9.20;;;;;;;;;;4990308;28;20385;-71
2021/04/01 10:20:36;;;;;;;13.77;8.73;;;;;;;;;;4990759;28;20030;-70
2021/04/01 10:23:08;;;;;;;11.80;9.35;;;;;;;;;;4992454;28;20085;-71
2021/04/01 10:25:49;;;;;;;14.93;10.02;;;;;;;;;;4991829;28;20082;-71
2021/04/01 10:28:43;;;;;;;11.13;9.82;;;;;;;;;;4990639;28;20036;-70
2021/04/01 10:31:14;;;;;;;17.05;10.20;;;;;;;;;;4989676;28;20084;-71
2021/04/01 10:33:59;;;;;;;15.43;9.73;;;;;;;;;;4992595;28;20428;-70
2021/04/01 10:36:27;;;;;;;11.55;9.70;;;;;;;;;;4991462;28;20088;-72
2021/04/01 10:39:09;;;;;;;12.52;10.05;;;;;;;;;;4983691;28;20476;-70
2021/04/01 10:41:44;;;;;;;12.70;10.20;;;;;;;;;;4979487;28;20103;-70
2021/04/01 10:44:10;;;;;;;15.82;9.98;;;;;;;;;;4985893;28;20033;-70
2021/04/01 10:46:36;;;;;;;15.52;10.35;;;;;;;;;;4982004;28;20077;-69
2021/04/01 10:49:02;;;;;;;17.15;9.57;;;;;;;;;;4988683;28;20047;-71
2021/04/01 10:51:29;;;;;;;12.68;8.05;;;;;;;;;;4989349;28;20023;-73
2021/04/01 10:53:56;;;;;;;10.32;8.07;;;;;;;;;;4994731;28;20031;-71
2021/04/01 10:56:23;;;;;;;14.60;10.07;;;;;;;;;;4982217;28;20030;-71
2021/04/01 10:58:54;;;;;;;12.30;9.20;;;;;;;;;;4984844;28;20077;-70
2021/04/01 11:01:22;;;;;;;10.30;8.70;;;;;;;;;;4985675;28;20483;-70
2021/04/01 11:03:50;;;;;;;12.75;8.65;;;;;;;;;;4984233;28;20102;-71
2021/04/01 11:06:17;;;;;;;22.25;9.50;;;;;;;;;;4985658;28;20024;-71
2021/04/01 11:08:44;;;;;;;11.10;9.68;;;;;;;;;;4992623;28;20026;-73
2021/04/01 11:11:11;;;;;;;13.40;9.30;;;;;;;;;;4984230;28;20102;-71
2021/04/01 11:13:38;;;;;;;13.77;9.57;;;;;;;;;;4996148;28;20026;-71
2021/04/01 11:16:08;;;;;;;13.15;8.65;;;;;;;;;;5008060;28;20066;-72
2021/04/01 11:18:35;;;;;;;12.80;9.70;;;;;;;;;;5003623;28;20060;-71
2021/04/01 11:21:05;;;;;;;16.30;9.73;;;;;;;;;;5000559;28;20022;-75
2021/04/01 11:23:31;;;;;;;28.63;9.68;;;;;;;;;;4995817;28;20035;-68
2021/04/01 11:26:01;;;;;;;10.43;8.35;;;;;;;;;;4995663;28;20034;-63
2021/04/01 11:28:34;;;;;;;12.57;9.15;;;;;;;;;;4995293;28;20117;-62
2021/04/01 11:31:00;;;;;;;11.88;9.10;;;;;;;;;;4995461;28;20109;-63
2021/04/01 11:33:28;;;;;;;20.85;10.23;;;;;;;;;;4995461;28;20038;-61
2021/04/01 11:36:08;;;;;;;15.43;10.45;;;;;;;;;;4995406;28;20088;-62
2021/04/01 11:38:39;;;;;;;15.90;10.05;;;;;;;;;;4995226;28;20022;-64
2021/04/01 11:41:07;;;;;;;14.90;10.48;;;;;;;;;;4994968;28;20534;-59
2021/04/01 11:43:35;;;;;;;18.63;9.63;;;;;;;;;;4994750;28;20164;-58
2021/04/01 11:46:14;;;;;;;14.13;10.05;;;;;;;;;;4991199;28;20041;-59
2021/04/01 11:48:41;;;;;;;10.52;8.43;;;;;;;;;;4992185;28;20050;-59
2021/04/01 11:51:16;;;;;;;18.33;10.18;;;;;;;;;;4995020;28;20023;-58
2021/04/01 11:53:42;;;;;;;13.68;9.63;;;;;;;;;;4987952;28;20084;-60
2021/04/01 11:56:09;;;;;;;15.93;9.02;;;;;;;;;;4991587;28;20460;-60
2021/04/01 11:58:35;;;;;;;11.70;8.98;;;;;;;;;;4992300;28;20033;-60
2021/04/01 12:01:33;;;;;;;12.20;9.20;;;;;;;;;;4991854;28;20027;-60
2021/04/01 12:04:09;;;;;;;12.87;8.60;;;;;;;;;;4994039;28;20452;-60
2021/04/01 12:06:36;;;;;;;14.13;9.32;;;;;;;;;;4994213;28;20077;-60
2021/04/01 12:09:03;;;;;;;15.73;9.10;;;;;;;;;;4994708;28;20113;-62
2021/04/01 12:11:38;;;;;;;12.93;8.40;;;;;;;;;;4995332;28;20018;-62
2021/04/01 12:14:08;;;;;;;11.80;8.40;;;;;;;;;;4993890;28;20049;-60
2021/04/01 12:16:34;;;;;;;11.75;8.85;;;;;;;;;;4983945;28;20397;-60
2021/04/01 12:19:01;;;;;;;15.80;8.38;;;;;;;;;;4986819;28;20053;-59
2021/04/01 12:21:27;;;;;;;13.93;9.02;;;;;;;;;;4994554;28;20026;-59
2021/04/01 12:23:56;;;;;;;10.52;7.93;;;;;;;;;;4994099;28;20026;-70
2021/04/01 12:26:22;;;;;;;12.45;9.05;;;;;;;;;;4994227;28;20068;-72
2021/04/01 12:28:55;;;;;;;9.25;8.13;;;;;;;;;;4988175;28;20034;-69
2021/04/01 12:31:34;;;;;;;14.77;8.80;;;;;;;;;;4994864;28;20034;-70
2021/04/01 12:34:00;;;;;;;14.45;7.95;;;;;;;;;;4992932;28;20107;-68
2021/04/01 12:36:34;;;;;;;12.00;7.70;;;;;;;;;;4993626;28;20041;-69
2021/04/01 12:39:00;;;;;;;13.15;9.52;;;;;;;;;;4992029;28;20069;-70
2021/04/01 12:41:27;;;;;;;12.38;9.52;;;;;;;;;;4993771;28;20373;-70
2021/04/01 12:43:54;;;;;;;13.52;8.38;;;;;;;;;;4995421;28;20133;-70
2021/04/01 12:46:21;;;;;;;10.18;8.23;;;;;;;;;;4994045;28;20030;-70
2021/04/01 12:48:48;;;;;;;13.35;8.70;;;;;;;;;;4990868;28;20049;-70
2021/04/01 12:51:19;;;;;;;13.57;8.52;;;;;;;;;;4990789;28;20019;-70
2021/04/01 12:53:58;;;;;;;10.98;8.40;;;;;;;;;;4990491;28;20088;-68
2021/04/01 12:56:26;;;;;;;11.90;8.70;;;;;;;;;;4992680;28;20027;-71
2021/04/01 12:59:25;;;;;;;11.00;8.63;;;;;;;;;;4991851;28;20022;-69
2021/04/01 13:01:51;;;;;;;12.45;9.15;;;;;;;;;;4989583;28;20057;-68
2021/04/01 13:04:22;;;;;;;11.80;8.30;;;;;;;;;;4992086;28;20464;-69
2021/04/01 13:11:47;;;;;;;15.82;9.50;;;;;;;;;;4992460;28;20380;-68
2021/04/01 13:14:13;;;;;;;11.88;9.15;;;;;;;;;;4992900;28;20030;-67
2021/04/01 13:16:39;;;;;;;10.25;8.38;;;;;;;;;;4992259;28;20130;-70
2021/04/01 13:19:06;;;;;;;11.02;8.50;;;;;;;;;;4990080;28;20023;-68
2021/04/01 13:26:38;;;;;;;12.48;9.30;;;;;;;;;;4991972;28;20109;-68
2021/04/01 13:29:06;;;;;;;12.98;9.07;;;;;;;;;;4996965;28;20030;-69
2021/04/01 13:32:18;;;;;;;;;;;;;;;;;;5000667;28;20019;-70
2021/04/01 13:39:20;;;;;;;12.75;9.45;;;;;;;;;;5000929;28;20129;-71
2021/04/01 13:42:04;;;;;;;12.82;9.00;;;;;;;;;;4992773;28;20101;-69
2021/04/01 13:44:52;;;;;;;11.48;9.15;;;;;;;;;;4991551;28;20038;-70
2021/04/01 13:47:20;;;;;;;14.85;8.60;;;;;;;;;;4990996;28;20053;-69
2021/04/01 13:49:48;;;;;;;12.45;9.35;;;;;;;;;;4989792;28;20105;-69
2021/04/01 13:52:33;;;;;;;12.93;8.90;;;;;;;;;;4991881;28;20164;-70
2021/04/01 14:11:08;;;;;;;13.52;8.35;;;;;;;;;;4992039;28;20121;-73
2021/04/01 14:13:34;;;;;;;22.20;10.25;;;;;;;;;;4990818;28;20038;-72
2021/04/01 14:16:00;;;;;;;12.25;8.98;;;;;;;;;;4994505;28;20030;-71
2021/04/01 14:18:27;;;;;;;11.68;9.18;;;;;;;;;;4998775;28;20027;-75
2021/04/01 14:20:54;;;;;;;13.02;7.80;;;;;;;;;;4998735;28;20049;-70
2021/04/01 14:23:24;;;;;;;12.07;7.30;;;;;;;;;;4995222;28;20035;-74
2021/04/01 14:25:51;;;;;;;11.68;7.90;;;;;;;;;;4998770;28;20030;-72
2021/04/01 14:28:18;;;;;;;8.48;7.50;;;;;;;;;;4997560;28;20029;-69
2021/04/01 14:30:44;;;;;;;9.40;8.38;;;;;;;;;;4998805;28;20058;-72
2021/04/01 14:33:12;;;;;;;15.20;9.32;;;;;;;;;;4997722;28;20026;-75
2021/04/01 14:35:39;;;;;;;17.02;8.82;;;;;;;;;;5002305;28;20069;-68
2021/04/01 14:38:05;;;;;;;14.85;8.68;;;;;;;;;;4988643;28;20030;-70
2021/04/01 14:45:57;;;;;;;10.75;7.95;;;;;;;;;;4963321;28;20572;-60
2021/04/01 14:48:24;;;;;;;11.00;7.57;;;;;;;;;;4969564;28;20141;-61
2021/04/01 14:50:50;;;;;;;9.45;8.05;;;;;;;;;;4973781;28;20027;-59
2021/04/01 14:53:28;;;;;;;8.00;7.10;;;;;;;;;;4971249;28;20026;-61
2021/04/01 14:55:54;;;;;;;10.52;7.50;;;;;;;;;;4962897;28;20097;-62
2021/04/01 14:58:20;;;;;;;11.88;7.90;;;;;;;;;;4959511;28;20084;-61
2021/04/01 15:00:47;;;;;;;15.95;8.80;;;;;;;;;;4961025;28;20478;-60
2021/04/01 15:03:14;;;;;;;10.85;7.70;;;;;;;;;;4965064;28;20030;-57
2021/04/01 15:05:40;;;;;;;10.93;9.80;;;;;;;;;;4976903;28;20078;-63
2021/04/01 15:08:08;;;;;;;9.95;8.77;;;;;;;;;;4976563;28;20105;-56
2021/04/01 15:10:34;;;;;;;16.45;9.27;;;;;;;;;;4976723;28;20026;-56
2021/04/01 15:13:00;;;;;;;10.52;8.23;;;;;;;;;;4977131;28;20058;-58
2021/04/01 15:15:27;;;;;;;9.68;7.80;;;;;;;;;;4976783;28;20042;-61
2021/04/01 15:17:56;;;;;;;12.73;8.70;;;;;;;;;;4976753;28;20035;-60
2021/04/01 15:20:23;;;;;;;16.60;7.57;;;;;;;;;;4977593;28;20105;-67
2021/04/01 15:22:52;;;;;;;11.90;7.35;;;;;;;;;;4995803;28;20025;-60
2021/04/01 15:25:19;;;;;;;9.88;7.57;;;;;;;;;;4997360;28;20034;-58
2021/04/01 15:27:45;;;;;;;7.78;7.03;;;;;;;;;;4994836;28;20033;-58
2021/04/01 15:30:12;;;;;;;8.20;7.32;;;;;;;;;;4994269;28;20050;-58
2021/04/01 15:32:38;;;;;;;10.80;7.72;;;;;;;;;;4993846;28;20030;-59
2021/04/01 15:35:05;;;;;;;11.20;8.25;;;;;;;;;;4993062;28;20113;-59
2021/04/01 15:37:31;;;;;;;17.77;8.85;;;;;;;;;;4993574;28;20457;-59
2021/04/01 15:39:57;;;;;;;9.23;7.20;;;;;;;;;;4994012;28;20022;-59
2021/04/01 15:42:23;;;;;;;15.80;9.43;;;;;;;;;;4994521;28;20026;-60
2021/04/01 15:44:50;;;;;;;14.02;8.23;;;;;;;;;;4993333;28;20034;-59
2021/04/01 15:47:16;;;;;;;11.90;9.20;;;;;;;;;;4992701;28;20511;-59
2021/04/01 15:49:43;;;;;;;11.57;8.52;;;;;;;;;;4994064;28;20041;-58
2021/04/01 15:52:09;;;;;;;12.25;7.95;;;;;;;;;;4994458;28;20109;-59
2021/04/01 15:54:36;;;;;;;9.88;7.63;;;;;;;;;;4993110;28;20196;-59
2021/04/01 15:57:02;;;;;;;9.60;7.70;;;;;;;;;;4993495;28;20034;-59
2021/04/01 15:59:28;;;;;;;10.48;8.32;;;;;;;;;;4993777;28;20033;-59
2021/04/01 16:01:55;;;;;;;13.15;7.85;;;;;;;;;;4994664;28;20046;-59
2021/04/01 16:04:21;;;;;;;10.68;8.00;;;;;;;;;;4993884;28;20027;-58
2021/04/01 16:06:47;;;;;;;9.88;7.47;;;;;;;;;;4993477;28;20081;-59
2021/04/01 16:09:13;;;;;;;12.52;8.02;;;;;;;;;;4993008;28;20026;-59
2021/04/01 16:11:39;;;;;;;10.20;9.07;;;;;;;;;;4992459;28;20046;-59
2021/04/01 16:14:05;;;;;;;9.00;6.85;;;;;;;;;;4992523;28;20056;-59
2021/04/01 16:16:32;;;;;;;9.00;8.00;;;;;;;;;;4982571;28;20057;-58
2021/04/01 16:18:58;;;;;;;8.30;6.45;;;;;;;;;;4990730;28;20026;-59
2021/04/01 16:21:24;;;;;;;10.20;7.25;;;;;;;;;;4991338;28;20030;-57
2021/04/01 16:23:50;;;;;;;10.93;7.78;;;;;;;;;;4994473;28;20443;-59
2021/04/01 16:26:16;;;;;;;10.02;7.00;;;;;;;;;;4994220;28;20072;-58
2021/04/01 16:28:42;;;;;;;9.82;7.47;;;;;;;;;;4994456;28;20065;-59
2021/04/01 16:31:09;;;;;;;11.77;7.57;;;;;;;;;;4994078;28;20461;-60
2021/04/01 16:33:36;;;;;;;10.82;7.03;;;;;;;;;;4993893;28;20034;-59
2021/04/01 16:36:03;;;;;;;11.98;8.80;;;;;;;;;;4994133;28;20026;-58
2021/04/01 16:38:30;;;;;;;10.77;8.48;;;;;;;;;;4993372;28;20018;-58
2021/04/01 16:40:57;;;;;;;13.45;8.82;;;;;;;;;;4993154;28;20022;-58
2021/04/01 16:43:24;;;;;;;13.68;9.40;;;;;;;;;;4993634;28;20548;-59